PAL102 KLAX-KFLL
Flight info
| Callsign | PAL102 |
|---|---|
| Flight time | N/A |
| Altitude | 37000 |
| Route | DOTSS2 CNERY BLH J169 TFD J50 ELP J2 FST CRP CATFS ALGAE MINOW M580 MARCI TEEKY4 |
| Aircraft | B77W/H-SDE1E2E3FGHIJ2J3J4J5M1RWXY/LB1D1 |
Departure
| Time | 2026-04-21 00:46 |
|---|---|
| Airport | Los Angeles International Airport (KLAX) |
Arrival
| Time | N/A |
|---|---|
| Airport | Fort Lauderdale Hollywood International Airport (KFLL) |
| Time | Latitude | Longitude | Altitude | Speed | Heading |
|---|---|---|---|---|---|
| 2026-04-21 00:18 | 33.94261 | -118.41108 | 99 ft | 0 kts | 81° |
| 2026-04-21 00:30 | 33.94260 | -118.41119 | 100 ft | 4 kts | 82° |
| 2026-04-21 00:31 | 33.94257 | -118.41151 | 97 ft | 4 kts | 85° |
| 2026-04-21 00:31 | 33.94255 | -118.41180 | 99 ft | 4 kts | 89° |
| 2026-04-21 00:31 | 33.94257 | -118.41207 | 97 ft | 4 kts | 120° |
| 2026-04-21 00:31 | 33.94268 | -118.41222 | 98 ft | 4 kts | 163° |
| 2026-04-21 00:32 | 33.94293 | -118.41226 | 98 ft | 4 kts | 177° |
| 2026-04-21 00:32 | 33.94307 | -118.41227 | 98 ft | 0 kts | 173° |
| 2026-04-21 00:36 | 33.94303 | -118.41226 | 99 ft | 4 kts | 173° |
| 2026-04-21 00:36 | 33.94237 | -118.41216 | 101 ft | 11 kts | 173° |
| 2026-04-21 00:36 | 33.94161 | -118.41204 | 101 ft | 11 kts | 173° |
| 2026-04-21 00:36 | 33.94078 | -118.41192 | 101 ft | 12 kts | 173° |
| 2026-04-21 00:37 | 33.93990 | -118.41178 | 101 ft | 13 kts | 173° |
| 2026-04-21 00:37 | 33.93900 | -118.41165 | 103 ft | 13 kts | 173° |
| 2026-04-21 00:37 | 33.93814 | -118.41150 | 106 ft | 12 kts | 165° |
| 2026-04-21 00:37 | 33.93769 | -118.41079 | 108 ft | 11 kts | 99° |
| 2026-04-21 00:38 | 33.93776 | -118.40984 | 106 ft | 12 kts | 84° |
| 2026-04-21 00:38 | 33.93786 | -118.40884 | 107 ft | 12 kts | 83° |
| 2026-04-21 00:38 | 33.93796 | -118.40778 | 107 ft | 13 kts | 84° |
| 2026-04-21 00:38 | 33.93807 | -118.40666 | 107 ft | 14 kts | 83° |
| 2026-04-21 00:39 | 33.93819 | -118.40547 | 108 ft | 15 kts | 84° |
| 2026-04-21 00:39 | 33.93832 | -118.40426 | 108 ft | 15 kts | 79° |
| 2026-04-21 00:39 | 33.93846 | -118.40302 | 109 ft | 15 kts | 83° |
| 2026-04-21 00:39 | 33.93859 | -118.40171 | 109 ft | 16 kts | 83° |
| 2026-04-21 00:40 | 33.93872 | -118.40036 | 110 ft | 16 kts | 84° |
| 2026-04-21 00:40 | 33.93883 | -118.39901 | 109 ft | 17 kts | 85° |
| 2026-04-21 00:40 | 33.93900 | -118.39754 | 108 ft | 19 kts | 82° |
| 2026-04-21 00:40 | 33.93917 | -118.39596 | 108 ft | 19 kts | 82° |
| 2026-04-21 00:41 | 33.93935 | -118.39430 | 107 ft | 21 kts | 83° |
| 2026-04-21 00:41 | 33.93953 | -118.39251 | 109 ft | 22 kts | 83° |
| 2026-04-21 00:41 | 33.93972 | -118.39068 | 107 ft | 22 kts | 83° |
| 2026-04-21 00:41 | 33.93990 | -118.38885 | 107 ft | 23 kts | 83° |
| 2026-04-21 00:42 | 33.94009 | -118.38696 | 107 ft | 23 kts | 84° |
| 2026-04-21 00:42 | 33.94029 | -118.38509 | 108 ft | 22 kts | 83° |
| 2026-04-21 00:42 | 33.94047 | -118.38319 | 108 ft | 23 kts | 83° |
| 2026-04-21 00:42 | 33.94067 | -118.38127 | 108 ft | 23 kts | 83° |
| 2026-04-21 00:43 | 33.94070 | -118.38051 | 108 ft | 0 kts | 99° |
| 2026-04-21 00:43 | 33.94067 | -118.38037 | 108 ft | 8 kts | 113° |
| 2026-04-21 00:44 | 33.94002 | -118.38007 | 113 ft | 6 kts | 206° |
| 2026-04-21 00:44 | 33.93975 | -118.38139 | 115 ft | 28 kts | 263° |
| 2026-04-21 00:44 | 33.93968 | -118.38197 | 110 ft | 0 kts | 262° |
| 2026-04-21 00:46 | 33.93943 | -118.38436 | 112 ft | 78 kts | 263° |
| 2026-04-21 00:46 | 33.93827 | -118.39569 | 152 ft | 189 kts | 263° |
| 2026-04-21 00:46 | 33.93628 | -118.41357 | 1004 ft | 227 kts | 261° |
| 2026-04-21 00:46 | 33.93390 | -118.43138 | 1379 ft | 206 kts | 261° |
| 2026-04-21 00:47 | 33.93211 | -118.44814 | 1890 ft | 205 kts | 265° |
| 2026-04-21 00:47 | 33.92850 | -118.46562 | 2106 ft | 230 kts | 237° |
| 2026-04-21 00:47 | 33.91810 | -118.48078 | 2621 ft | 241 kts | 231° |
| 2026-04-21 00:47 | 33.90694 | -118.49676 | 3279 ft | 254 kts | 229° |
| 2026-04-21 00:48 | 33.89278 | -118.50959 | 3909 ft | 262 kts | 198° |
| 2026-04-21 00:48 | 33.87477 | -118.51203 | 4753 ft | 262 kts | 181° |
| 2026-04-21 00:48 | 33.85672 | -118.51231 | 5579 ft | 265 kts | 181° |
| 2026-04-21 00:48 | 33.83838 | -118.51287 | 6590 ft | 261 kts | 182° |
| 2026-04-21 00:49 | 33.82017 | -118.51360 | 7477 ft | 263 kts | 182° |
| 2026-04-21 00:49 | 33.80173 | -118.51451 | 8261 ft | 267 kts | 182° |
| 2026-04-21 00:49 | 33.78307 | -118.51556 | 9087 ft | 270 kts | 183° |
| 2026-04-21 00:49 | 33.76416 | -118.51669 | 9918 ft | 273 kts | 183° |
| 2026-04-21 00:50 | 33.74491 | -118.51787 | 10547 ft | 283 kts | 184° |
| 2026-04-21 00:50 | 33.72439 | -118.51811 | 10719 ft | 307 kts | 173° |
| 2026-04-21 00:50 | 33.70353 | -118.50883 | 10914 ft | 338 kts | 148° |
| 2026-04-21 00:50 | 33.68679 | -118.48759 | 11220 ft | 367 kts | 122° |
| 2026-04-21 00:51 | 33.67728 | -118.45842 | 11782 ft | 381 kts | 111° |
| 2026-04-21 00:51 | 33.66910 | -118.42772 | 12532 ft | 391 kts | 111° |
| 2026-04-21 00:51 | 33.66041 | -118.39690 | 13456 ft | 396 kts | 112° |
| 2026-04-21 00:51 | 33.65186 | -118.36515 | 14335 ft | 404 kts | 108° |
| 2026-04-21 00:52 | 33.64631 | -118.33176 | 15171 ft | 412 kts | 102° |
| 2026-04-21 00:52 | 33.64380 | -118.29705 | 16026 ft | 421 kts | 95° |
| 2026-04-21 00:52 | 33.64366 | -118.26166 | 16870 ft | 427 kts | 93° |
| 2026-04-21 00:52 | 33.64390 | -118.22583 | 17665 ft | 433 kts | 93° |
| 2026-04-21 00:53 | 33.64420 | -118.18943 | 18432 ft | 439 kts | 93° |
| 2026-04-21 00:53 | 33.64443 | -118.15249 | 19118 ft | 444 kts | 94° |
| 2026-04-21 00:53 | 33.64455 | -118.11530 | 19870 ft | 448 kts | 94° |
| 2026-04-21 00:53 | 33.64459 | -118.07784 | 20612 ft | 451 kts | 94° |
| 2026-04-21 00:54 | 33.64458 | -118.04036 | 21346 ft | 456 kts | 94° |
| 2026-04-21 00:54 | 33.64453 | -118.00174 | 22067 ft | 460 kts | 94° |
| 2026-04-21 00:54 | 33.64447 | -117.96375 | 22756 ft | 464 kts | 94° |
| 2026-04-21 00:54 | 33.64440 | -117.92472 | 23452 ft | 469 kts | 94° |
| 2026-04-21 00:55 | 33.64433 | -117.88541 | 24050 ft | 473 kts | 94° |
| 2026-04-21 00:55 | 33.64423 | -117.84580 | 24636 ft | 476 kts | 94° |
| 2026-04-21 00:55 | 33.64226 | -117.80607 | 25196 ft | 477 kts | 100° |
| 2026-04-21 00:55 | 33.63719 | -117.76725 | 25754 ft | 478 kts | 105° |
| 2026-04-21 00:56 | 33.62864 | -117.72813 | 26301 ft | 479 kts | 110° |
| 2026-04-21 00:56 | 33.61902 | -117.69008 | 26816 ft | 482 kts | 110° |
| 2026-04-21 00:56 | 33.60908 | -117.65125 | 27321 ft | 486 kts | 110° |
| 2026-04-21 00:56 | 33.60254 | -117.62560 | 27653 ft | 489 kts | 110° |